Mount Perry, Ohio
Current Conditions -  °F | °C
As of 5:18 AM on Monday 26 Jan 2015 (Local Time) from KVTA Reporting Station
Light Snow Light Snow  
Wind Chill: 14°   Ceiling: 3700
Heat Index: 23°   Visibility: 3mi
Dew Point: 19°   Wind: 8mph
Humidity: 85%   Direction: 20°NNE
Pressure: 29.72"   Gusts: NA
Location:  39.88°N, 82.22°W
Report Text: KVTA 261018Z AUTO 02007KT 3SM -SN BR FEW021 BKN037 OVC046 M05/M07 A2972 RMK AO2 P0000 T10501072
Loading
Personal Weather Stations






























Interactive Weather Map New forecast layout! Learn more

10-Day Weather Forecast

Advertisements
Track Severe Weather on mobile